sensor_id;sensor_type;location;lat;lon;timestamp;P1;durP1;ratioP1;P2;durP2;ratioP2
29358;SDS011;16347;53.232;6.556;2022-11-20T00:01:05;17.52;;;9.50;;
29358;SDS011;16347;53.232;6.556;2022-11-20T00:03:34;17.25;;;8.70;;
29358;SDS011;16347;53.232;6.556;2022-11-20T00:06:02;18.10;;;10.00;;
29358;SDS011;16347;53.232;6.556;2022-11-20T00:08:32;18.92;;;9.77;;
29358;SDS011;16347;53.232;6.556;2022-11-20T00:11:02;20.80;;;9.98;;
29358;SDS011;16347;53.232;6.556;2022-11-20T00:13:31;20.58;;;10.80;;
29358;SDS011;16347;53.232;6.556;2022-11-20T00:16:00;17.52;;;9.68;;
29358;SDS011;16347;53.232;6.556;2022-11-20T00:18:32;17.35;;;9.77;;
29358;SDS011;16347;53.232;6.556;2022-11-20T00:21:03;20.50;;;10.60;;
29358;SDS011;16347;53.232;6.556;2022-11-20T00:23:40;19.85;;;10.23;;
29358;SDS011;16347;53.232;6.556;2022-11-20T00:26:15;18.75;;;9.77;;
29358;SDS011;16347;53.232;6.556;2022-11-20T00:28:58;20.55;;;10.15;;
29358;SDS011;16347;53.232;6.556;2022-11-20T00:31:28;19.05;;;9.60;;
29358;SDS011;16347;53.232;6.556;2022-11-20T00:34:06;19.98;;;9.57;;
29358;SDS011;16347;53.232;6.556;2022-11-20T00:36:46;19.38;;;10.07;;
29358;SDS011;16347;53.232;6.556;2022-11-20T00:39:24;18.73;;;9.05;;
29358;SDS011;16347;53.232;6.556;2022-11-20T00:41:54;21.35;;;10.02;;
29358;SDS011;16347;53.232;6.556;2022-11-20T00:44:25;16.38;;;8.57;;
29358;SDS011;16347;53.232;6.556;2022-11-20T00:46:59;17.42;;;9.43;;
29358;SDS011;16347;53.232;6.556;2022-11-20T00:49:41;18.13;;;9.23;;
29358;SDS011;16347;53.232;6.556;2022-11-20T00:52:11;22.13;;;9.02;;
29358;SDS011;16347;53.232;6.556;2022-11-20T00:54:46;22.48;;;9.35;;
29358;SDS011;16347;53.232;6.556;2022-11-20T00:57:32;17.23;;;9.50;;
29358;SDS011;16347;53.232;6.556;2022-11-20T01:00:15;19.73;;;9.30;;
29358;SDS011;16347;53.232;6.556;2022-11-20T01:02:45;17.98;;;9.35;;
29358;SDS011;16347;53.232;6.556;2022-11-20T01:05:14;19.38;;;9.57;;
29358;SDS011;16347;53.232;6.556;2022-11-20T01:07:43;13.63;;;8.50;;
29358;SDS011;16347;53.232;6.556;2022-11-20T01:10:11;23.58;;;10.02;;
29358;SDS011;16347;53.232;6.556;2022-11-20T01:12:49;21.00;;;10.05;;
29358;SDS011;16347;53.232;6.556;2022-11-20T01:15:41;16.63;;;9.10;;
29358;SDS011;16347;53.232;6.556;2022-11-20T01:18:14;16.90;;;8.85;;
29358;SDS011;16347;53.232;6.556;2022-11-20T01:20:51;18.17;;;9.07;;
29358;SDS011;16347;53.232;6.556;2022-11-20T01:23:24;16.23;;;8.60;;
29358;SDS011;16347;53.232;6.556;2022-11-20T01:25:55;17.50;;;9.32;;
29358;SDS011;16347;53.232;6.556;2022-11-20T01:28:28;14.77;;;8.63;;
29358;SDS011;16347;53.232;6.556;2022-11-20T01:30:58;17.65;;;8.85;;
29358;SDS011;16347;53.232;6.556;2022-11-20T01:33:27;16.88;;;9.23;;
29358;SDS011;16347;53.232;6.556;2022-11-20T01:36:04;21.02;;;9.13;;
29358;SDS011;16347;53.232;6.556;2022-11-20T01:38:33;17.85;;;9.68;;
29358;SDS011;16347;53.232;6.556;2022-11-20T01:41:12;17.73;;;9.27;;
29358;SDS011;16347;53.232;6.556;2022-11-20T01:44:01;16.63;;;8.80;;
29358;SDS011;16347;53.232;6.556;2022-11-20T01:46:31;18.25;;;9.43;;
29358;SDS011;16347;53.232;6.556;2022-11-20T01:49:05;19.23;;;9.88;;
29358;SDS011;16347;53.232;6.556;2022-11-20T01:51:40;16.77;;;9.10;;
29358;SDS011;16347;53.232;6.556;2022-11-20T01:54:23;18.40;;;9.38;;
29358;SDS011;16347;53.232;6.556;2022-11-20T01:57:02;16.92;;;9.15;;
29358;SDS011;16347;53.232;6.556;2022-11-20T01:59:37;20.63;;;9.43;;
29358;SDS011;16347;53.232;6.556;2022-11-20T02:02:19;24.02;;;10.30;;
29358;SDS011;16347;53.232;6.556;2022-11-20T02:04:49;17.88;;;9.70;;
29358;SDS011;16347;53.232;6.556;2022-11-20T02:07:24;16.10;;;7.45;;
29358;SDS011;16347;53.232;6.556;2022-11-20T02:09:52;18.98;;;9.38;;
29358;SDS011;16347;53.232;6.556;2022-11-20T02:12:24;20.50;;;9.35;;
29358;SDS011;16347;53.232;6.556;2022-11-20T02:15:10;18.27;;;9.93;;
29358;SDS011;16347;53.232;6.556;2022-11-20T02:17:38;17.88;;;10.35;;
29358;SDS011;16347;53.232;6.556;2022-11-20T02:20:06;22.98;;;10.02;;
29358;SDS011;16347;53.232;6.556;2022-11-20T02:22:38;21.00;;;10.07;;
29358;SDS011;16347;53.232;6.556;2022-11-20T02:25:12;23.60;;;10.40;;
29358;SDS011;16347;53.232;6.556;2022-11-20T02:27:42;20.13;;;10.65;;
29358;SDS011;16347;53.232;6.556;2022-11-20T02:30:10;18.63;;;10.80;;
29358;SDS011;16347;53.232;6.556;2022-11-20T02:32:39;20.08;;;10.68;;
29358;SDS011;16347;53.232;6.556;2022-11-20T02:35:08;22.98;;;10.45;;
29358;SDS011;16347;53.232;6.556;2022-11-20T02:37:58;22.15;;;10.23;;
29358;SDS011;16347;53.232;6.556;2022-11-20T02:40:30;21.80;;;10.48;;
29358;SDS011;16347;53.232;6.556;2022-11-20T02:42:58;27.45;;;11.32;;
29358;SDS011;16347;53.232;6.556;2022-11-20T02:45:26;16.58;;;10.20;;
29358;SDS011;16347;53.232;6.556;2022-11-20T02:47:54;17.15;;;10.02;;
29358;SDS011;16347;53.232;6.556;2022-11-20T02:50:22;17.48;;;9.60;;
29358;SDS011;16347;53.232;6.556;2022-11-20T02:52:50;22.17;;;10.55;;
29358;SDS011;16347;53.232;6.556;2022-11-20T02:55:18;20.58;;;10.57;;
29358;SDS011;16347;53.232;6.556;2022-11-20T02:57:48;22.77;;;9.68;;
29358;SDS011;16347;53.232;6.556;2022-11-20T03:00:16;21.05;;;10.23;;
29358;SDS011;16347;53.232;6.556;2022-11-20T03:02:44;17.77;;;9.57;;
29358;SDS011;16347;53.232;6.556;2022-11-20T03:05:12;17.10;;;10.20;;
29358;SDS011;16347;53.232;6.556;2022-11-20T03:07:40;27.70;;;11.25;;
29358;SDS011;16347;53.232;6.556;2022-11-20T03:10:08;18.10;;;9.52;;
29358;SDS011;16347;53.232;6.556;2022-11-20T03:12:36;18.45;;;10.38;;
29358;SDS011;16347;53.232;6.556;2022-11-20T03:15:06;17.75;;;10.10;;
29358;SDS011;16347;53.232;6.556;2022-11-20T03:17:36;20.08;;;10.40;;
29358;SDS011;16347;53.232;6.556;2022-11-20T03:20:04;19.40;;;9.63;;
29358;SDS011;16347;53.232;6.556;2022-11-20T03:22:33;16.08;;;8.63;;
29358;SDS011;16347;53.232;6.556;2022-11-20T03:25:01;19.60;;;10.55;;
29358;SDS011;16347;53.232;6.556;2022-11-20T03:27:31;18.20;;;9.15;;
29358;SDS011;16347;53.232;6.556;2022-11-20T03:30:00;19.83;;;9.65;;
29358;SDS011;16347;53.232;6.556;2022-11-20T03:32:30;21.58;;;9.77;;
29358;SDS011;16347;53.232;6.556;2022-11-20T03:34:58;20.00;;;9.50;;
29358;SDS011;16347;53.232;6.556;2022-11-20T03:37:26;17.50;;;9.85;;
29358;SDS011;16347;53.232;6.556;2022-11-20T03:39:54;16.30;;;8.57;;
29358;SDS011;16347;53.232;6.556;2022-11-20T03:42:22;17.85;;;8.77;;
29358;SDS011;16347;53.232;6.556;2022-11-20T03:45:08;18.80;;;9.50;;
29358;SDS011;16347;53.232;6.556;2022-11-20T03:47:38;18.17;;;9.40;;
29358;SDS011;16347;53.232;6.556;2022-11-20T03:50:07;17.83;;;8.90;;
29358;SDS011;16347;53.232;6.556;2022-11-20T03:52:35;16.63;;;8.48;;
29358;SDS011;16347;53.232;6.556;2022-11-20T03:55:04;14.75;;;7.80;;
29358;SDS011;16347;53.232;6.556;2022-11-20T03:57:32;15.73;;;8.88;;
29358;SDS011;16347;53.232;6.556;2022-11-20T04:00:01;17.13;;;8.13;;
29358;SDS011;16347;53.232;6.556;2022-11-20T04:02:29;16.30;;;8.95;;
29358;SDS011;16347;53.232;6.556;2022-11-20T04:04:59;15.10;;;8.27;;
29358;SDS011;16347;53.232;6.556;2022-11-20T04:07:27;15.73;;;8.77;;
29358;SDS011;16347;53.232;6.556;2022-11-20T04:09:55;18.70;;;8.77;;
29358;SDS011;16347;53.232;6.556;2022-11-20T04:12:23;15.98;;;8.70;;
29358;SDS011;16347;53.232;6.556;2022-11-20T04:14:51;12.68;;;7.15;;
29358;SDS011;16347;53.232;6.556;2022-11-20T04:17:19;16.48;;;9.23;;
29358;SDS011;16347;53.232;6.556;2022-11-20T04:19:47;17.05;;;9.10;;
29358;SDS011;16347;53.232;6.556;2022-11-20T04:22:16;14.88;;;8.77;;
29358;SDS011;16347;53.232;6.556;2022-11-20T04:24:44;18.02;;;9.50;;
29358;SDS011;16347;53.232;6.556;2022-11-20T04:27:12;18.05;;;9.38;;
29358;SDS011;16347;53.232;6.556;2022-11-20T04:29:40;15.73;;;9.07;;
29358;SDS011;16347;53.232;6.556;2022-11-20T04:32:09;22.85;;;10.48;;
29358;SDS011;16347;53.232;6.556;2022-11-20T04:34:37;18.52;;;9.48;;
29358;SDS011;16347;53.232;6.556;2022-11-20T04:37:05;18.67;;;9.10;;
29358;SDS011;16347;53.232;6.556;2022-11-20T04:39:34;19.55;;;9.85;;
29358;SDS011;16347;53.232;6.556;2022-11-20T04:42:02;17.25;;;9.10;;
29358;SDS011;16347;53.232;6.556;2022-11-20T04:44:48;16.50;;;9.25;;
29358;SDS011;16347;53.232;6.556;2022-11-20T04:47:16;20.27;;;10.30;;
29358;SDS011;16347;53.232;6.556;2022-11-20T04:49:44;20.10;;;8.55;;
29358;SDS011;16347;53.232;6.556;2022-11-20T04:52:12;20.17;;;9.65;;
29358;SDS011;16347;53.232;6.556;2022-11-20T04:54:42;20.02;;;8.85;;
29358;SDS011;16347;53.232;6.556;2022-11-20T04:57:10;13.85;;;8.40;;
29358;SDS011;16347;53.232;6.556;2022-11-20T04:59:40;14.15;;;7.63;;
29358;SDS011;16347;53.232;6.556;2022-11-20T05:02:09;14.82;;;7.75;;
29358;SDS011;16347;53.232;6.556;2022-11-20T05:04:38;14.82;;;8.10;;
29358;SDS011;16347;53.232;6.556;2022-11-20T05:07:05;13.95;;;7.72;;
29358;SDS011;16347;53.232;6.556;2022-11-20T05:09:33;14.30;;;8.13;;
29358;SDS011;16347;53.232;6.556;2022-11-20T05:12:03;15.10;;;8.32;;
29358;SDS011;16347;53.232;6.556;2022-11-20T05:14:31;16.40;;;8.25;;
29358;SDS011;16347;53.232;6.556;2022-11-20T05:16:59;17.70;;;9.23;;
29358;SDS011;16347;53.232;6.556;2022-11-20T05:19:27;17.63;;;9.07;;
29358;SDS011;16347;53.232;6.556;2022-11-20T05:21:55;14.30;;;8.05;;
29358;SDS011;16347;53.232;6.556;2022-11-20T05:24:23;16.40;;;8.93;;
29358;SDS011;16347;53.232;6.556;2022-11-20T05:26:51;16.00;;;9.02;;
29358;SDS011;16347;53.232;6.556;2022-11-20T05:29:20;15.68;;;8.98;;
29358;SDS011;16347;53.232;6.556;2022-11-20T05:31:48;15.60;;;9.02;;
29358;SDS011;16347;53.232;6.556;2022-11-20T05:34:16;19.63;;;8.80;;
29358;SDS011;16347;53.232;6.556;2022-11-20T05:36:44;15.50;;;7.93;;
29358;SDS011;16347;53.232;6.556;2022-11-20T05:39:12;16.58;;;8.20;;
29358;SDS011;16347;53.232;6.556;2022-11-20T05:41:40;16.08;;;8.88;;
29358;SDS011;16347;53.232;6.556;2022-11-20T05:44:10;13.70;;;8.07;;
29358;SDS011;16347;53.232;6.556;2022-11-20T05:46:40;18.55;;;8.30;;
29358;SDS011;16347;53.232;6.556;2022-11-20T05:49:08;16.17;;;8.63;;
29358;SDS011;16347;53.232;6.556;2022-11-20T05:51:36;15.98;;;8.82;;
29358;SDS011;16347;53.232;6.556;2022-11-20T05:54:04;15.52;;;8.23;;
29358;SDS011;16347;53.232;6.556;2022-11-20T05:56:32;19.77;;;8.88;;
29358;SDS011;16347;53.232;6.556;2022-11-20T05:59:00;15.60;;;8.30;;
29358;SDS011;16347;53.232;6.556;2022-11-20T06:01:28;20.02;;;9.07;;
29358;SDS011;16347;53.232;6.556;2022-11-20T06:03:57;18.63;;;10.27;;
29358;SDS011;16347;53.232;6.556;2022-11-20T06:06:26;16.70;;;8.85;;
29358;SDS011;16347;53.232;6.556;2022-11-20T06:08:54;14.05;;;8.13;;
29358;SDS011;16347;53.232;6.556;2022-11-20T06:11:22;14.38;;;7.93;;
29358;SDS011;16347;53.232;6.556;2022-11-20T06:13:50;15.40;;;8.20;;
29358;SDS011;16347;53.232;6.556;2022-11-20T06:16:19;13.70;;;8.45;;
29358;SDS011;16347;53.232;6.556;2022-11-20T06:18:48;16.65;;;8.82;;
29358;SDS011;16347;53.232;6.556;2022-11-20T06:21:18;15.73;;;7.85;;
29358;SDS011;16347;53.232;6.556;2022-11-20T06:23:48;19.02;;;8.50;;
29358;SDS011;16347;53.232;6.556;2022-11-20T06:26:18;14.10;;;7.97;;
29358;SDS011;16347;53.232;6.556;2022-11-20T06:28:49;15.45;;;7.95;;
29358;SDS011;16347;53.232;6.556;2022-11-20T06:31:18;17.92;;;8.95;;
29358;SDS011;16347;53.232;6.556;2022-11-20T06:33:48;12.85;;;7.50;;
29358;SDS011;16347;53.232;6.556;2022-11-20T06:36:19;15.18;;;8.13;;
29358;SDS011;16347;53.232;6.556;2022-11-20T06:38:49;15.60;;;7.85;;
29358;SDS011;16347;53.232;6.556;2022-11-20T06:41:18;15.48;;;8.32;;
29358;SDS011;16347;53.232;6.556;2022-11-20T06:43:47;19.45;;;8.95;;
29358;SDS011;16347;53.232;6.556;2022-11-20T06:46:16;15.48;;;8.38;;
29358;SDS011;16347;53.232;6.556;2022-11-20T06:48:46;15.85;;;8.23;;
29358;SDS011;16347;53.232;6.556;2022-11-20T06:51:14;11.75;;;7.82;;
29358;SDS011;16347;53.232;6.556;2022-11-20T06:53:44;15.70;;;8.82;;
29358;SDS011;16347;53.232;6.556;2022-11-20T06:56:13;16.30;;;8.25;;
29358;SDS011;16347;53.232;6.556;2022-11-20T06:58:41;12.73;;;7.75;;
29358;SDS011;16347;53.232;6.556;2022-11-20T07:01:10;15.10;;;7.95;;
29358;SDS011;16347;53.232;6.556;2022-11-20T07:03:40;17.00;;;8.68;;
29358;SDS011;16347;53.232;6.556;2022-11-20T07:06:09;15.70;;;8.43;;
29358;SDS011;16347;53.232;6.556;2022-11-20T07:08:37;13.82;;;7.93;;
29358;SDS011;16347;53.232;6.556;2022-11-20T07:11:07;20.88;;;9.07;;
29358;SDS011;16347;53.232;6.556;2022-11-20T07:13:35;15.98;;;8.43;;
29358;SDS011;16347;53.232;6.556;2022-11-20T07:16:04;15.63;;;8.02;;
29358;SDS011;16347;53.232;6.556;2022-11-20T07:18:35;13.52;;;7.55;;
29358;SDS011;16347;53.232;6.556;2022-11-20T07:21:04;15.07;;;8.65;;
29358;SDS011;16347;53.232;6.556;2022-11-20T07:23:33;15.70;;;7.95;;
29358;SDS011;16347;53.232;6.556;2022-11-20T07:26:02;14.95;;;8.55;;
29358;SDS011;16347;53.232;6.556;2022-11-20T07:28:32;16.80;;;8.23;;
29358;SDS011;16347;53.232;6.556;2022-11-20T07:31:01;12.75;;;7.18;;
29358;SDS011;16347;53.232;6.556;2022-11-20T07:33:31;18.02;;;8.75;;
29358;SDS011;16347;53.232;6.556;2022-11-20T07:35:59;14.73;;;8.68;;
29358;SDS011;16347;53.232;6.556;2022-11-20T07:38:28;14.38;;;7.85;;
29358;SDS011;16347;53.232;6.556;2022-11-20T07:40:56;18.80;;;8.30;;
29358;SDS011;16347;53.232;6.556;2022-11-20T07:43:28;17.48;;;8.30;;
29358;SDS011;16347;53.232;6.556;2022-11-20T07:45:59;13.43;;;8.27;;
29358;SDS011;16347;53.232;6.556;2022-11-20T07:48:27;16.38;;;7.85;;
29358;SDS011;16347;53.232;6.556;2022-11-20T07:50:56;18.85;;;9.40;;
29358;SDS011;16347;53.232;6.556;2022-11-20T07:53:24;14.15;;;8.02;;
29358;SDS011;16347;53.232;6.556;2022-11-20T07:55:52;15.45;;;8.88;;
29358;SDS011;16347;53.232;6.556;2022-11-20T07:58:20;14.80;;;7.90;;
29358;SDS011;16347;53.232;6.556;2022-11-20T08:00:49;13.75;;;7.93;;
29358;SDS011;16347;53.232;6.556;2022-11-20T08:03:19;16.48;;;9.48;;
29358;SDS011;16347;53.232;6.556;2022-11-20T08:05:51;14.85;;;8.18;;
29358;SDS011;16347;53.232;6.556;2022-11-20T08:08:19;13.25;;;7.32;;
29358;SDS011;16347;53.232;6.556;2022-11-20T08:10:47;16.35;;;8.18;;
29358;SDS011;16347;53.232;6.556;2022-11-20T08:13:15;13.45;;;7.88;;
29358;SDS011;16347;53.232;6.556;2022-11-20T08:16:01;13.80;;;7.65;;
29358;SDS011;16347;53.232;6.556;2022-11-20T08:18:30;14.38;;;7.57;;
29358;SDS011;16347;53.232;6.556;2022-11-20T08:21:01;11.85;;;7.57;;
29358;SDS011;16347;53.232;6.556;2022-11-20T08:23:30;13.48;;;7.63;;
29358;SDS011;16347;53.232;6.556;2022-11-20T08:25:59;12.73;;;7.85;;
29358;SDS011;16347;53.232;6.556;2022-11-20T08:28:27;11.98;;;7.55;;
29358;SDS011;16347;53.232;6.556;2022-11-20T08:30:57;16.02;;;8.10;;
29358;SDS011;16347;53.232;6.556;2022-11-20T08:33:26;14.48;;;8.55;;
29358;SDS011;16347;53.232;6.556;2022-11-20T08:35:59;17.75;;;8.15;;
29358;SDS011;16347;53.232;6.556;2022-11-20T08:38:28;15.73;;;8.05;;
29358;SDS011;16347;53.232;6.556;2022-11-20T08:40:56;14.27;;;8.50;;
29358;SDS011;16347;53.232;6.556;2022-11-20T08:43:42;16.58;;;8.50;;
29358;SDS011;16347;53.232;6.556;2022-11-20T08:46:10;16.10;;;8.18;;
29358;SDS011;16347;53.232;6.556;2022-11-20T08:48:39;22.20;;;8.32;;
29358;SDS011;16347;53.232;6.556;2022-11-20T08:51:09;14.65;;;8.20;;
29358;SDS011;16347;53.232;6.556;2022-11-20T08:53:37;15.32;;;8.80;;
29358;SDS011;16347;53.232;6.556;2022-11-20T08:56:05;13.95;;;8.35;;
29358;SDS011;16347;53.232;6.556;2022-11-20T08:58:34;16.45;;;8.70;;
29358;SDS011;16347;53.232;6.556;2022-11-20T09:01:22;18.42;;;8.80;;
29358;SDS011;16347;53.232;6.556;2022-11-20T09:03:51;14.40;;;8.70;;
29358;SDS011;16347;53.232;6.556;2022-11-20T09:06:21;15.30;;;8.13;;
29358;SDS011;16347;53.232;6.556;2022-11-20T09:08:51;13.95;;;7.93;;
29358;SDS011;16347;53.232;6.556;2022-11-20T09:11:20;19.13;;;8.65;;
29358;SDS011;16347;53.232;6.556;2022-11-20T09:13:48;14.68;;;8.65;;
29358;SDS011;16347;53.232;6.556;2022-11-20T09:16:16;14.40;;;8.43;;
29358;SDS011;16347;53.232;6.556;2022-11-20T09:18:44;16.48;;;8.63;;
29358;SDS011;16347;53.232;6.556;2022-11-20T09:21:28;16.73;;;8.70;;
29358;SDS011;16347;53.232;6.556;2022-11-20T09:23:57;15.35;;;8.60;;
29358;SDS011;16347;53.232;6.556;2022-11-20T09:26:25;17.58;;;9.05;;
29358;SDS011;16347;53.232;6.556;2022-11-20T09:28:53;15.98;;;8.40;;
29358;SDS011;16347;53.232;6.556;2022-11-20T09:31:24;17.92;;;9.23;;
29358;SDS011;16347;53.232;6.556;2022-11-20T09:33:53;18.25;;;9.45;;
29358;SDS011;16347;53.232;6.556;2022-11-20T09:36:21;17.30;;;9.52;;
29358;SDS011;16347;53.232;6.556;2022-11-20T09:38:50;16.58;;;9.45;;
29358;SDS011;16347;53.232;6.556;2022-11-20T09:41:24;17.50;;;9.70;;
29358;SDS011;16347;53.232;6.556;2022-11-20T09:44:05;14.88;;;8.88;;
29358;SDS011;16347;53.232;6.556;2022-11-20T09:46:47;15.93;;;8.45;;
29358;SDS011;16347;53.232;6.556;2022-11-20T09:49:33;13.88;;;8.43;;
29358;SDS011;16347;53.232;6.556;2022-11-20T09:52:22;19.88;;;9.32;;
29358;SDS011;16347;53.232;6.556;2022-11-20T09:55:06;18.67;;;9.25;;
29358;SDS011;16347;53.232;6.556;2022-11-20T09:57:50;15.00;;;8.27;;
29358;SDS011;16347;53.232;6.556;2022-11-20T10:00:40;13.18;;;8.68;;
29358;SDS011;16347;53.232;6.556;2022-11-20T10:06:09;19.23;;;8.95;;
29358;SDS011;16347;53.232;6.556;2022-11-20T10:08:44;15.52;;;7.45;;
29358;SDS011;16347;53.232;6.556;2022-11-20T10:11:28;17.27;;;8.93;;
29358;SDS011;16347;53.232;6.556;2022-11-20T10:14:17;18.50;;;8.77;;
29358;SDS011;16347;53.232;6.556;2022-11-20T10:16:57;17.90;;;9.10;;
29358;SDS011;16347;53.232;6.556;2022-11-20T10:19:47;16.42;;;8.68;;
29358;SDS011;16347;53.232;6.556;2022-11-20T10:22:35;13.98;;;7.82;;
29358;SDS011;16347;53.232;6.556;2022-11-20T10:25:19;18.92;;;8.57;;
29358;SDS011;16347;53.232;6.556;2022-11-20T10:28:02;16.10;;;8.07;;
29358;SDS011;16347;53.232;6.556;2022-11-20T10:30:43;16.20;;;8.88;;
29358;SDS011;16347;53.232;6.556;2022-11-20T10:33:15;17.52;;;8.52;;
29358;SDS011;16347;53.232;6.556;2022-11-20T10:35:49;17.92;;;8.82;;
29358;SDS011;16347;53.232;6.556;2022-11-20T10:38:31;15.38;;;8.13;;
29358;SDS011;16347;53.232;6.556;2022-11-20T10:41:16;13.90;;;7.60;;
29358;SDS011;16347;53.232;6.556;2022-11-20T10:44:13;17.77;;;8.23;;
29358;SDS011;16347;53.232;6.556;2022-11-20T10:47:13;13.32;;;7.38;;
29358;SDS011;16347;53.232;6.556;2022-11-20T10:49:53;14.38;;;7.38;;
29358;SDS011;16347;53.232;6.556;2022-11-20T10:56:07;16.20;;;8.13;;
29358;SDS011;16347;53.232;6.556;2022-11-20T11:01:50;16.02;;;7.85;;
29358;SDS011;16347;53.232;6.556;2022-11-20T11:04:38;14.50;;;8.30;;
29358;SDS011;16347;53.232;6.556;2022-11-20T11:07:29;14.45;;;8.05;;
29358;SDS011;16347;53.232;6.556;2022-11-20T11:10:14;14.88;;;8.13;;
29358;SDS011;16347;53.232;6.556;2022-11-20T11:12:51;15.18;;;7.55;;
29358;SDS011;16347;53.232;6.556;2022-11-20T11:15:26;14.40;;;7.65;;
29358;SDS011;16347;53.232;6.556;2022-11-20T11:17:58;15.55;;;7.90;;
29358;SDS011;16347;53.232;6.556;2022-11-20T11:20:26;14.48;;;7.55;;
29358;SDS011;16347;53.232;6.556;2022-11-20T11:22:55;12.63;;;7.38;;
29358;SDS011;16347;53.232;6.556;2022-11-20T11:25:25;12.80;;;7.22;;
29358;SDS011;16347;53.232;6.556;2022-11-20T11:27:59;14.00;;;7.40;;
29358;SDS011;16347;53.232;6.556;2022-11-20T11:30:43;17.48;;;8.25;;
29358;SDS011;16347;53.232;6.556;2022-11-20T11:33:22;16.80;;;7.75;;
29358;SDS011;16347;53.232;6.556;2022-11-20T11:36:17;15.75;;;8.23;;
29358;SDS011;16347;53.232;6.556;2022-11-20T11:39:06;14.50;;;7.55;;
29358;SDS011;16347;53.232;6.556;2022-11-20T11:42:07;16.05;;;7.30;;
29358;SDS011;16347;53.232;6.556;2022-11-20T11:45:06;15.55;;;7.78;;
29358;SDS011;16347;53.232;6.556;2022-11-20T11:47:53;11.98;;;6.43;;
29358;SDS011;16347;53.232;6.556;2022-11-20T11:50:47;13.15;;;6.65;;
29358;SDS011;16347;53.232;6.556;2022-11-20T11:53:25;13.10;;;6.95;;
29358;SDS011;16347;53.232;6.556;2022-11-20T11:56:05;12.95;;;6.97;;
29358;SDS011;16347;53.232;6.556;2022-11-20T11:58:43;14.93;;;7.63;;
29358;SDS011;16347;53.232;6.556;2022-11-20T12:01:22;14.30;;;7.72;;
29358;SDS011;16347;53.232;6.556;2022-11-20T12:04:00;12.55;;;7.05;;
29358;SDS011;16347;53.232;6.556;2022-11-20T12:06:34;12.70;;;7.13;;
29358;SDS011;16347;53.232;6.556;2022-11-20T12:09:09;13.88;;;6.80;;
29358;SDS011;16347;53.232;6.556;2022-11-20T12:11:42;12.27;;;6.50;;
29358;SDS011;16347;53.232;6.556;2022-11-20T12:14:16;11.35;;;7.03;;
29358;SDS011;16347;53.232;6.556;2022-11-20T12:16:50;12.27;;;6.63;;
29358;SDS011;16347;53.232;6.556;2022-11-20T12:19:41;12.52;;;6.55;;
29358;SDS011;16347;53.232;6.556;2022-11-20T12:22:40;10.32;;;5.20;;
29358;SDS011;16347;53.232;6.556;2022-11-20T12:25:31;11.27;;;5.53;;
29358;SDS011;16347;53.232;6.556;2022-11-20T12:28:30;7.10;;;4.40;;
29358;SDS011;16347;53.232;6.556;2022-11-20T12:31:42;11.60;;;5.20;;
29358;SDS011;16347;53.232;6.556;2022-11-20T12:34:55;11.10;;;5.45;;
29358;SDS011;16347;53.232;6.556;2022-11-20T12:38:03;8.32;;;4.60;;
29358;SDS011;16347;53.232;6.556;2022-11-20T12:41:00;8.05;;;5.00;;
29358;SDS011;16347;53.232;6.556;2022-11-20T12:43:40;8.90;;;5.15;;
29358;SDS011;16347;53.232;6.556;2022-11-20T12:46:33;9.30;;;5.18;;
29358;SDS011;16347;53.232;6.556;2022-11-20T12:49:19;10.27;;;5.23;;
29358;SDS011;16347;53.232;6.556;2022-11-20T12:52:10;8.40;;;4.95;;
29358;SDS011;16347;53.232;6.556;2022-11-20T12:54:59;9.57;;;4.28;;
29358;SDS011;16347;53.232;6.556;2022-11-20T12:57:40;9.85;;;4.18;;
29358;SDS011;16347;53.232;6.556;2022-11-20T13:00:16;7.03;;;4.70;;
29358;SDS011;16347;53.232;6.556;2022-11-20T13:03:03;10.25;;;5.03;;
29358;SDS011;16347;53.232;6.556;2022-11-20T13:05:43;8.15;;;4.22;;
29358;SDS011;16347;53.232;6.556;2022-11-20T13:08:24;7.60;;;4.25;;
29358;SDS011;16347;53.232;6.556;2022-11-20T13:11:09;9.02;;;4.60;;
29358;SDS011;16347;53.232;6.556;2022-11-20T13:14:08;10.23;;;4.93;;
29358;SDS011;16347;53.232;6.556;2022-11-20T13:17:00;9.02;;;4.75;;
29358;SDS011;16347;53.232;6.556;2022-11-20T13:20:17;9.70;;;4.68;;
29358;SDS011;16347;53.232;6.556;2022-11-20T13:23:22;6.18;;;4.32;;
29358;SDS011;16347;53.232;6.556;2022-11-20T13:26:20;7.47;;;4.50;;
29358;SDS011;16347;53.232;6.556;2022-11-20T13:29:07;7.78;;;4.75;;
29358;SDS011;16347;53.232;6.556;2022-11-20T13:32:00;6.40;;;4.65;;
29358;SDS011;16347;53.232;6.556;2022-11-20T13:34:37;9.38;;;5.35;;
29358;SDS011;16347;53.232;6.556;2022-11-20T13:37:23;10.48;;;5.60;;
29358;SDS011;16347;53.232;6.556;2022-11-20T13:40:20;11.55;;;5.65;;
29358;SDS011;16347;53.232;6.556;2022-11-20T13:43:10;10.52;;;5.28;;
29358;SDS011;16347;53.232;6.556;2022-11-20T13:45:54;9.52;;;5.50;;
29358;SDS011;16347;53.232;6.556;2022-11-20T13:48:24;12.00;;;5.80;;
29358;SDS011;16347;53.232;6.556;2022-11-20T13:51:00;10.48;;;5.90;;
29358;SDS011;16347;53.232;6.556;2022-11-20T13:53:42;12.50;;;6.15;;
29358;SDS011;16347;53.232;6.556;2022-11-20T13:56:34;10.45;;;5.35;;
29358;SDS011;16347;53.232;6.556;2022-11-20T13:59:23;11.10;;;5.53;;
29358;SDS011;16347;53.232;6.556;2022-11-20T14:02:25;11.18;;;5.18;;
29358;SDS011;16347;53.232;6.556;2022-11-20T14:05:05;10.88;;;5.72;;
29358;SDS011;16347;53.232;6.556;2022-11-20T14:08:31;8.38;;;5.05;;
29358;SDS011;16347;53.232;6.556;2022-11-20T14:11:16;8.00;;;4.93;;
29358;SDS011;16347;53.232;6.556;2022-11-20T14:14:13;10.68;;;5.60;;
29358;SDS011;16347;53.232;6.556;2022-11-20T14:16:50;10.85;;;5.70;;
29358;SDS011;16347;53.232;6.556;2022-11-20T14:19:28;9.35;;;5.68;;
29358;SDS011;16347;53.232;6.556;2022-11-20T14:22:10;9.43;;;5.25;;
29358;SDS011;16347;53.232;6.556;2022-11-20T14:25:01;8.18;;;5.60;;
29358;SDS011;16347;53.232;6.556;2022-11-20T14:27:38;8.68;;;5.18;;
29358;SDS011;16347;53.232;6.556;2022-11-20T14:30:24;9.60;;;5.07;;
29358;SDS011;16347;53.232;6.556;2022-11-20T14:33:17;9.80;;;5.88;;
29358;SDS011;16347;53.232;6.556;2022-11-20T14:35:47;10.00;;;5.97;;
29358;SDS011;16347;53.232;6.556;2022-11-20T14:38:19;10.52;;;6.25;;
29358;SDS011;16347;53.232;6.556;2022-11-20T14:40:51;12.32;;;5.53;;
29358;SDS011;16347;53.232;6.556;2022-11-20T14:43:21;12.90;;;5.78;;
29358;SDS011;16347;53.232;6.556;2022-11-20T14:45:54;9.25;;;5.63;;
29358;SDS011;16347;53.232;6.556;2022-11-20T14:48:37;9.15;;;5.57;;
29358;SDS011;16347;53.232;6.556;2022-11-20T14:51:26;10.25;;;5.78;;
29358;SDS011;16347;53.232;6.556;2022-11-20T14:54:14;10.95;;;6.13;;
29358;SDS011;16347;53.232;6.556;2022-11-20T14:57:03;14.68;;;6.07;;
29358;SDS011;16347;53.232;6.556;2022-11-20T15:00:05;13.75;;;5.95;;
29358;SDS011;16347;53.232;6.556;2022-11-20T15:02:38;11.85;;;6.45;;
29358;SDS011;16347;53.232;6.556;2022-11-20T15:05:10;12.18;;;6.10;;
29358;SDS011;16347;53.232;6.556;2022-11-20T15:07:43;10.45;;;5.63;;
29358;SDS011;16347;53.232;6.556;2022-11-20T15:10:20;11.90;;;6.80;;
29358;SDS011;16347;53.232;6.556;2022-11-20T15:12:51;10.50;;;5.80;;
29358;SDS011;16347;53.232;6.556;2022-11-20T15:15:21;11.40;;;5.88;;
29358;SDS011;16347;53.232;6.556;2022-11-20T15:17:55;10.77;;;6.28;;
29358;SDS011;16347;53.232;6.556;2022-11-20T15:20:29;12.70;;;6.55;;
29358;SDS011;16347;53.232;6.556;2022-11-20T15:23:00;12.50;;;6.57;;
29358;SDS011;16347;53.232;6.556;2022-11-20T15:25:30;12.60;;;6.43;;
29358;SDS011;16347;53.232;6.556;2022-11-20T15:27:59;11.55;;;6.55;;
29358;SDS011;16347;53.232;6.556;2022-11-20T15:30:27;13.10;;;6.30;;